Time;durP1;ratioP1;P1;durP2;ratioP2;P2;SDS_P1;SDS_P2;PMS_P1;PMS_P2;Temp;Humidity;BMP_temperature;BMP_pressure;BME280_temperature;BME280_humidity;BME280_pressure;Samples;Min_cycle;Max_cycle;Signal;HPM_P1;HPM_P2
2020/12/27 00:09:21;;;;;;;79.37;35.03;;;;;;;-3.18;81.19;98831.95;491168;1147;104513;-41
2020/12/27 00:19:26;;;;;;;85.83;35.20;;;;;;;-3.16;81.25;98843.78;489813;1148;104883;-41
2020/12/27 00:29:31;;;;;;;89.23;38.47;;;;;;;-3.42;80.82;98837.53;490644;1147;104527;-41
2020/12/27 00:39:36;;;;;;;87.87;35.00;;;;;;;-3.49;81.20;98833.88;490916;1147;104886;-40
2020/12/27 00:49:40;;;;;;;101.07;41.47;;;;;;;-3.60;81.04;98826.23;490576;1146;104867;-40
2020/12/27 00:59:45;;;;;;;96.13;41.90;;;;;;;-3.63;81.20;98814.39;490757;1147;104523;-40
2020/12/27 01:09:51;;;;;;;83.93;35.33;;;;;;;-3.79;81.13;98796.02;490872;1147;104517;-40
2020/12/27 01:19:55;;;;;;;97.23;37.23;;;;;;;-3.86;81.29;98772.49;490586;1147;104553;-40
2020/12/27 01:30:00;;;;;;;101.63;36.57;;;;;;;-3.93;81.02;98755.09;490382;1147;104537;-39
2020/12/27 01:40:05;;;;;;;104.80;36.53;;;;;;;-3.89;81.59;98752.09;491292;1147;104518;-40
2020/12/27 01:50:10;;;;;;;82.63;35.23;;;;;;;-3.84;81.35;98736.19;490349;1147;104863;-45
2020/12/27 02:00:15;;;;;;;68.50;29.63;;;;;;;-3.94;81.50;98720.70;490463;1147;104518;-42
2020/12/27 02:10:20;;;;;;;78.83;31.00;;;;;;;-4.03;81.79;98705.99;490635;1147;104646;-40
2020/12/27 02:20:25;;;;;;;58.47;26.30;;;;;;;-4.08;81.28;98695.27;490641;1147;104579;-40
2020/12/27 02:30:30;;;;;;;54.50;27.13;;;;;;;-4.09;81.86;98670.39;490387;1147;104515;-41
2020/12/27 02:40:34;;;;;;;57.00;24.37;;;;;;;-4.05;81.43;98669.16;490661;1147;104517;-42
2020/12/27 02:50:40;;;;;;;49.13;23.77;;;;;;;-3.94;81.65;98639.81;491291;1108;104558;-40
2020/12/27 03:00:45;;;;;;;51.67;21.47;;;;;;;-3.94;81.08;98632.06;490630;1147;104515;-41
2020/12/27 03:10:51;;;;;;;48.00;19.63;;;;;;;-3.85;81.41;98634.63;490591;1147;104554;-40
2020/12/27 03:20:56;;;;;;;33.25;15.60;;;;;;;-3.87;81.13;98620.22;490267;1147;104524;-42
2020/12/27 03:31:01;;;;;;;30.37;16.87;;;;;;;-3.87;80.95;98618.45;490629;1146;104540;-39
2020/12/27 03:41:06;;;;;;;35.00;14.27;;;;;;;-3.72;81.68;98598.98;490767;1147;104912;-41
2020/12/27 03:51:11;;;;;;;23.30;12.57;;;;;;;-3.80;80.77;98575.59;490519;1147;104457;-40
2020/12/27 04:01:15;;;;;;;22.63;12.90;;;;;;;-3.79;80.82;98560.91;491209;1147;104521;-40
2020/12/27 04:11:20;;;;;;;32.70;13.77;;;;;;;-3.91;80.78;98549.12;489883;1148;104575;-39
2020/12/27 04:21:25;;;;;;;30.53;14.33;;;;;;;-4.00;81.10;98527.55;490393;1147;104519;-41
2020/12/27 04:31:30;;;;;;;35.13;14.87;;;;;;;-4.09;81.08;98510.29;490430;1147;104918;-40
2020/12/27 04:41:36;;;;;;;32.30;17.07;;;;;;;-4.12;80.96;98493.31;489726;1148;104876;-40
2020/12/27 04:51:43;;;;;;;40.45;16.70;;;;;;;-4.15;80.51;98485.84;491637;1147;104588;-39
2020/12/27 05:01:50;;;;;;;31.53;14.23;;;;;;;-4.17;80.86;98469.69;490269;1147;104928;-42
2020/12/27 05:11:56;;;;;;;27.50;13.80;;;;;;;-4.19;80.38;98469.02;489702;1148;104444;-40
2020/12/27 05:22:08;;;;;;;27.70;11.87;;;;;;;-4.21;80.14;98458.02;491329;1147;105576;-39
2020/12/27 05:32:13;;;;;;;25.60;12.37;;;;;;;-4.21;80.30;98446.87;490439;1147;104893;-41
2020/12/27 05:52:49;;;;;;;24.00;10.95;;;;;;;-4.19;80.17;98432.05;490244;1147;104524;-39
2020/12/27 06:13:39;;;;;;;25.20;12.33;;;;;;;-4.22;79.94;98433.16;490679;1147;104558;-40
2020/12/27 06:23:47;;;;;;;25.33;11.97;;;;;;;-4.19;79.67;98455.30;490771;1147;104436;-40
2020/12/27 06:33:52;;;;;;;28.03;14.03;;;;;;;-4.23;79.93;98448.78;490388;1147;104945;-42
2020/12/27 06:43:57;;;;;;;28.13;13.30;;;;;;;-4.24;80.03;98440.23;490856;1147;104877;-42
2020/12/27 06:54:02;;;;;;;30.70;14.40;;;;;;;-4.22;79.77;98440.90;490949;1147;104558;-42
2020/12/27 07:04:12;;;;;;;20.67;12.50;;;;;;;-4.18;79.34;98444.01;489790;1148;104516;-42
2020/12/27 07:24:42;;;;;;;20.55;10.85;;;;;;;-3.91;79.18;98391.56;489793;1148;104567;-40
2020/12/27 07:34:48;;;;;;;25.47;12.20;;;;;;;-3.89;79.29;98387.06;490833;1147;104567;-43
2020/12/27 07:44:52;;;;;;;24.70;11.23;;;;;;;-3.91;78.89;98358.80;490770;1147;104569;-41
2020/12/27 07:54:56;;;;;;;33.23;14.03;;;;;;;-3.52;78.58;98348.23;490745;1147;104557;-41
2020/12/27 08:05:02;;;;;;;34.30;14.07;;;;;;;-2.84;78.84;98336.33;490443;1147;104581;-40
2020/12/27 08:15:08;;;;;;;39.93;13.83;;;;;;;-2.10;78.07;98327.15;489881;1147;104634;-43
2020/12/27 08:25:14;;;;;;;44.73;19.83;;;;;;;-0.22;76.92;98289.77;490734;1147;104929;-41
2020/12/27 08:35:24;;;;;;;45.60;22.35;;;;;;;0.36;75.39;98283.27;489624;1147;104915;-40
2020/12/27 08:55:58;;;;;;;36.57;17.40;;;;;;;0.74;72.77;98258.10;489674;1148;104560;-40
2020/12/27 09:06:12;;;;;;;26.03;13.43;;;;;;;-0.04;71.29;98253.92;489790;1148;104985;-43
2020/12/27 09:16:30;;;;;;;27.43;11.57;;;;;;;-0.24;69.24;98242.34;490880;1147;104527;-42
2020/12/27 09:26:35;;;;;;;29.40;12.83;;;;;;;-0.19;70.65;98228.86;489957;1147;104982;-39
2020/12/27 09:36:40;;;;;;;29.00;10.50;;;;;;;-0.07;70.94;98220.48;490473;1147;104519;-40
2020/12/27 09:46:46;;;;;;;29.35;11.50;;;;;;;0.09;69.66;98195.37;490447;1147;104520;-40
2020/12/27 09:56:51;;;;;;;27.40;11.37;;;;;;;0.33;70.67;98179.59;490442;1147;104572;-39
2020/12/27 10:06:55;;;;;;;23.73;12.10;;;;;;;0.40;69.34;98161.48;489681;1148;104559;-40
2020/12/27 10:17:02;;;;;;;48.83;19.03;;;;;;;0.51;66.90;98141.06;490647;1148;105501;-40
2020/12/27 10:27:08;;;;;;;28.47;12.70;;;;;;;0.60;68.01;98128.77;490779;1147;104564;-40
2020/12/27 10:37:12;;;;;;;47.10;20.43;;;;;;;0.70;68.26;98100.68;489798;1148;104867;-41
2020/12/27 10:47:17;;;;;;;38.50;14.33;;;;;;;0.91;67.48;98053.11;490479;1147;105015;-40
2020/12/27 10:57:36;;;;;;;32.00;14.23;;;;;;;1.03;67.71;98036.05;490895;1146;104500;-41
2020/12/27 11:07:41;;;;;;;25.67;11.70;;;;;;;1.22;68.00;98004.20;490379;1147;104521;-41
2020/12/27 11:17:46;;;;;;;38.20;15.25;;;;;;;1.33;65.97;97965.63;490455;1147;104448;-40
2020/12/27 11:27:52;;;;;;;34.55;15.10;;;;;;;1.33;65.57;97942.18;490391;1147;104524;-40
2020/12/27 11:37:57;;;;;;;24.07;11.93;;;;;;;1.40;63.07;97912.58;490445;1147;104582;-40
2020/12/27 11:48:02;;;;;;;29.83;14.13;;;;;;;1.45;64.97;97893.80;490222;1147;104939;-40
2020/12/27 11:58:07;;;;;;;33.20;13.47;;;;;;;1.56;64.09;97876.83;489782;1147;104498;-40
2020/12/27 12:08:12;;;;;;;28.67;10.97;;;;;;;1.58;62.04;97854.80;490613;1147;104909;-40
2020/12/27 12:18:17;;;;;;;29.90;13.97;;;;;;;1.60;62.68;97858.01;490715;1147;104477;-39
2020/12/27 12:28:21;;;;;;;33.47;15.13;;;;;;;1.65;61.60;97832.17;490491;1147;104504;-41
2020/12/27 12:38:26;;;;;;;32.43;13.40;;;;;;;1.69;60.83;97803.95;490500;1147;104526;-40
2020/12/27 12:48:31;;;;;;;29.25;12.50;;;;;;;1.70;60.45;97767.28;489796;1148;104529;-40
2020/12/27 12:58:37;;;;;;;23.13;9.30;;;;;;;1.73;56.62;97733.00;490750;1147;104826;-40
2020/12/27 13:08:43;;;;;;;18.85;9.30;;;;;;;1.76;57.91;97703.94;490573;1147;104834;-41
2020/12/27 13:18:49;;;;;;;28.27;11.67;;;;;;;1.84;56.71;97682.09;490481;1147;104572;-43
2020/12/27 13:28:54;;;;;;;32.57;13.17;;;;;;;1.82;55.88;97666.66;490443;1147;104928;-42
2020/12/27 13:38:59;;;;;;;28.55;11.45;;;;;;;1.77;56.90;97648.20;490700;1147;104521;-42
2020/12/27 13:49:04;;;;;;;31.60;13.27;;;;;;;1.68;56.91;97644.19;489732;1148;104553;-42
2020/12/27 13:59:09;;;;;;;28.73;11.90;;;;;;;1.64;58.56;97626.52;490440;1147;104561;-41
2020/12/27 14:09:14;;;;;;;34.50;12.70;;;;;;;1.53;57.25;97599.25;490580;1147;105014;-40
2020/12/27 14:19:19;;;;;;;29.13;13.30;;;;;;;1.34;57.79;97600.80;490609;1147;104523;-41
2020/12/27 14:29:25;;;;;;;53.87;22.23;;;;;;;1.16;58.11;97577.89;491078;1147;104511;-43
2020/12/27 14:39:30;;;;;;;92.23;31.57;;;;;;;0.89;59.82;97563.18;490327;1147;104540;-40
2020/12/27 14:49:35;;;;;;;56.63;20.87;;;;;;;0.66;59.82;97555.67;490801;1147;104521;-40
2020/12/27 14:59:40;;;;;;;39.87;17.60;;;;;;;0.52;59.88;97547.02;490624;1147;104547;-39
2020/12/27 15:09:45;;;;;;;57.87;22.33;;;;;;;0.40;59.52;97542.53;490605;1147;104518;-39
2020/12/27 15:19:50;;;;;;;42.57;19.00;;;;;;;0.20;59.98;97547.60;490325;1147;104561;-41
2020/12/27 15:30:04;;;;;;;43.70;17.97;;;;;;;-0.04;60.81;97533.24;489817;1147;104503;-42
2020/12/27 15:40:10;;;;;;;43.93;17.37;;;;;;;-0.25;61.12;97496.91;490346;1147;104463;-42
2020/12/27 15:50:14;;;;;;;42.53;17.00;;;;;;;-0.47;61.69;97486.58;490874;1147;104691;-42
2020/12/27 16:00:19;;;;;;;43.37;17.60;;;;;;;-0.67;62.65;97470.02;489839;1146;104521;-40
2020/12/27 16:10:24;;;;;;;42.30;19.60;;;;;;;-0.81;63.47;97458.71;490657;1147;104513;-41
2020/12/27 16:20:45;;;;;;;45.27;18.80;;;;;;;-0.91;63.75;97424.50;490764;1147;104556;-41
2020/12/27 16:30:53;;;;;;;48.50;20.20;;;;;;;-1.03;63.90;97408.61;489911;1147;104524;-40
2020/12/27 16:40:58;;;;;;;52.80;20.27;;;;;;;-1.09;64.53;97393.80;490845;1147;104575;-40
2020/12/27 16:51:06;;;;;;;50.50;20.63;;;;;;;-1.13;64.98;97371.02;490501;1147;104509;-41
2020/12/27 17:01:10;;;;;;;53.37;20.60;;;;;;;-1.10;64.91;97344.70;491128;1147;104767;-39
2020/12/27 17:11:20;;;;;;;37.25;17.30;;;;;;;-1.03;65.72;97315.22;490768;1147;104525;-40
2020/12/27 17:21:25;;;;;;;52.55;18.60;;;;;;;-1.01;65.45;97307.23;490879;1147;104553;-39
2020/12/27 17:31:30;;;;;;;57.20;19.80;;;;;;;-1.00;65.65;97288.89;489878;1147;104637;-39
2020/12/27 17:41:37;;;;;;;53.77;22.40;;;;;;;-1.07;66.41;97271.69;490624;1147;104863;-42
2020/12/27 17:51:42;;;;;;;49.77;19.60;;;;;;;-1.14;66.63;97265.66;490428;1147;104531;-41
2020/12/27 18:01:46;;;;;;;93.90;33.33;;;;;;;-1.18;66.98;97236.70;490625;1147;105017;-40
2020/12/27 18:11:51;;;;;;;63.33;24.93;;;;;;;-1.18;67.06;97202.16;490820;1147;104516;-39
2020/12/27 18:21:57;;;;;;;55.85;21.85;;;;;;;-1.18;66.98;97171.03;490617;1147;104581;-41
2020/12/27 18:42:22;;;;;;;48.90;20.95;;;;;;;-1.19;67.66;97154.67;490327;1147;104521;-40
2020/12/27 18:52:28;;;;;;;59.25;23.20;;;;;;;-1.20;67.46;97131.52;490621;1147;104550;-40
2020/12/27 19:02:33;;;;;;;66.07;22.67;;;;;;;-1.28;67.32;97116.94;490884;1147;104880;-41
2020/12/27 19:12:37;;;;;;;82.23;27.47;;;;;;;-1.25;68.25;97106.97;490630;1147;104618;-41
2020/12/27 19:22:42;;;;;;;47.40;19.47;;;;;;;-1.08;68.08;97081.52;490486;1147;104855;-41
2020/12/27 19:32:48;;;;;;;47.85;18.30;;;;;;;-0.82;68.47;97064.44;490593;1147;104513;-41
2020/12/27 19:42:53;;;;;;;33.73;14.70;;;;;;;-0.62;67.71;97066.09;490374;1147;104444;-40
2020/12/27 19:52:57;;;;;;;69.55;23.95;;;;;;;-0.46;67.90;97045.95;489789;1148;104933;-42
2020/12/27 20:03:03;;;;;;;51.33;23.20;;;;;;;-0.39;67.89;97031.16;490655;1146;104523;-40
2020/12/27 20:13:08;;;;;;;55.43;20.33;;;;;;;-0.28;68.02;97016.77;490922;1147;104529;-43
2020/12/27 20:23:13;;;;;;;41.13;18.23;;;;;;;-0.14;68.10;96998.39;490719;1147;104822;-41
2020/12/27 20:33:18;;;;;;;35.90;15.27;;;;;;;0.02;67.74;96973.80;489790;1148;104482;-41
2020/12/27 20:43:23;;;;;;;36.50;14.87;;;;;;;0.11;67.75;96976.97;490726;1146;104916;-41
2020/12/27 20:53:28;;;;;;;30.90;13.90;;;;;;;0.10;67.78;96957.17;490422;1147;104554;-40
2020/12/27 21:03:33;;;;;;;34.87;15.00;;;;;;;0.02;67.53;96934.81;490440;1147;104542;-41
2020/12/27 21:13:39;;;;;;;38.90;15.53;;;;;;;-0.14;68.15;96930.05;490459;1147;104833;-41
2020/12/27 21:23:44;;;;;;;36.97;15.73;;;;;;;-0.18;68.50;96908.88;490613;1147;104516;-41
2020/12/27 21:33:49;;;;;;;38.80;14.15;;;;;;;-0.28;68.68;96894.70;490528;1147;104521;-40
2020/12/27 21:43:54;;;;;;;41.87;16.47;;;;;;;-0.35;69.36;96892.13;491181;1147;104444;-41
2020/12/27 21:53:59;;;;;;;33.57;14.20;;;;;;;-0.36;69.28;96875.75;490619;1147;104551;-40
2020/12/27 22:04:03;;;;;;;34.43;16.93;;;;;;;-0.39;69.88;96862.38;490383;1147;104521;-42
2020/12/27 22:14:08;;;;;;;44.07;18.87;;;;;;;-0.39;70.29;96842.40;490667;1147;104540;-40
2020/12/27 22:24:13;;;;;;;46.30;18.63;;;;;;;-0.44;69.99;96807.67;490516;1146;104631;-40
2020/12/27 22:34:19;;;;;;;70.77;28.67;;;;;;;-0.54;70.20;96802.09;490644;1147;104491;-42
2020/12/27 22:44:23;;;;;;;69.73;26.30;;;;;;;-0.56;70.97;96791.91;489916;1148;104520;-41
2020/12/27 22:54:28;;;;;;;75.33;28.83;;;;;;;-0.45;70.76;96759.34;490542;1147;104828;-40
2020/12/27 23:04:32;;;;;;;56.00;21.70;;;;;;;-0.20;71.77;96755.03;490444;1147;104529;-42
2020/12/27 23:14:38;;;;;;;36.43;15.30;;;;;;;-0.07;71.38;96728.97;490501;1147;104521;-40
2020/12/27 23:24:43;;;;;;;50.65;20.90;;;;;;;-0.09;71.87;96701.61;490814;1147;104525;-41
2020/12/27 23:34:48;;;;;;;47.30;19.23;;;;;;;0.01;72.10;96703.77;490427;1147;104636;-42
2020/12/27 23:44:53;;;;;;;43.53;17.30;;;;;;;-0.04;72.63;96681.78;490495;1147;104556;-40
2020/12/27 23:54:58;;;;;;;31.43;13.60;;;;;;;-0.10;72.37;96672.24;489733;1148;104579;-40
